Time;durP1;ratioP1;P1;durP2;ratioP2;P2;SDS_P1;SDS_P2;PMS_P1;PMS_P2;Temp;Humidity;BMP_temperature;BMP_pressure;BME280_temperature;BME280_humidity;BME280_pressure;Samples;Min_cycle;Max_cycle;Signal;HPM_P1;HPM_P2
2023/05/20 00:01:59;;;;;;;2.17;2.07;;;17.90;69.80;18.10;96490.00;;;;6100682;23;20178;-84
2023/05/20 00:04:26;;;;;;;2.40;1.90;;;17.80;69.80;18.00;96488.00;;;;6126295;23;20254;-83
2023/05/20 00:06:53;;;;;;;2.30;2.20;;;17.80;70.00;18.00;96493.00;;;;6125777;23;20311;-83
2023/05/20 00:09:21;;;;;;;2.37;2.17;;;17.80;70.10;18.00;96489.00;;;;6077885;23;20175;-83
2023/05/20 00:11:48;;;;;;;2.00;1.90;;;17.80;70.20;18.00;96490.00;;;;6125555;23;20270;-83
2023/05/20 00:14:15;;;;;;;2.00;1.90;;;17.70;70.20;18.00;96485.00;;;;6125436;23;20210;-84
2023/05/20 00:16:44;;;;;;;2.87;2.20;;;17.70;70.30;18.00;96487.00;;;;6125244;23;20171;-84
2023/05/20 00:19:11;;;;;;;2.40;2.17;;;17.70;70.30;18.00;96480.00;;;;6126180;23;20231;-83
2023/05/20 00:21:38;;;;;;;2.30;2.10;;;17.70;70.40;17.90;96466.00;;;;6083153;23;20209;-83
2023/05/20 00:24:07;;;;;;;2.50;2.30;;;17.70;70.40;17.90;96467.00;;;;6106424;23;20194;-83
2023/05/20 00:26:34;;;;;;;1.80;1.70;;;17.60;70.30;17.90;96464.00;;;;6103993;23;20700;-83
2023/05/20 00:29:01;;;;;;;2.00;1.90;;;17.60;70.50;17.80;96460.00;;;;6128891;23;20202;-83
2023/05/20 00:31:28;;;;;;;2.63;2.00;;;17.60;70.60;17.80;96463.00;;;;6127053;23;20672;-83
2023/05/20 00:33:57;;;;;;;2.50;2.30;;;17.60;70.70;17.70;96459.00;;;;6129671;23;20271;-82
2023/05/20 00:36:24;;;;;;;2.13;2.03;;;17.50;70.80;17.60;96461.00;;;;6127162;23;20257;-83
2023/05/20 00:38:51;;;;;;;2.50;2.30;;;17.50;70.90;17.60;96458.00;;;;6129266;23;20221;-83
2023/05/20 00:41:18;;;;;;;2.07;1.97;;;17.50;71.00;17.60;96459.00;;;;6130747;23;20218;-83
2023/05/20 00:43:45;;;;;;;2.47;2.27;;;17.40;71.10;17.60;96465.00;;;;6131148;23;20201;-83
2023/05/20 00:46:13;;;;;;;2.60;2.40;;;17.40;71.30;17.60;96460.00;;;;6132384;23;20205;-84
2023/05/20 00:48:44;;;;;;;2.77;2.57;;;17.40;71.50;17.60;96462.00;;;;6127162;23;20234;-83
2023/05/20 00:51:15;;;;;;;2.27;2.07;;;17.30;71.50;17.50;96460.00;;;;6127953;23;20223;-83
2023/05/20 00:53:43;;;;;;;2.77;2.57;;;17.30;71.70;17.50;96460.00;;;;6127241;23;20246;-83
2023/05/20 00:56:11;;;;;;;2.43;2.33;;;17.30;72.50;17.50;96459.00;;;;6127273;23;20253;-83
2023/05/20 00:58:40;;;;;;;2.60;2.40;;;17.30;71.90;17.50;96463.00;;;;6127957;23;20254;-83
2023/05/20 01:01:07;;;;;;;2.67;2.47;;;17.30;72.70;17.50;96470.00;;;;6128115;23;20194;-83
2023/05/20 01:03:35;;;;;;;2.73;2.53;;;17.30;72.10;17.50;96461.00;;;;6124790;23;20195;-83
2023/05/20 01:06:03;;;;;;;2.73;2.43;;;17.20;72.10;17.50;96461.00;;;;6125032;23;20257;-83
2023/05/20 01:08:33;;;;;;;2.67;2.47;;;17.20;72.20;17.50;96458.00;;;;6125390;23;20253;-83
2023/05/20 01:11:07;;;;;;;2.60;2.40;;;17.20;72.20;17.40;96450.00;;;;6126842;23;20207;-83
2023/05/20 01:13:43;;;;;;;2.80;2.60;;;17.20;72.30;17.40;96449.00;;;;6124854;23;20249;-83
2023/05/20 01:16:12;;;;;;;2.70;2.30;;;17.20;72.40;17.40;96436.00;;;;6125270;23;20237;-83
2023/05/20 01:18:43;;;;;;;2.40;2.27;;;17.20;72.60;17.40;96440.00;;;;6127234;23;20254;-83
2023/05/20 01:21:13;;;;;;;2.70;2.50;;;17.20;72.60;17.40;96446.00;;;;6126400;23;20274;-83
2023/05/20 01:23:43;;;;;;;2.90;2.70;;;17.10;72.60;17.30;96447.00;;;;6100504;23;20510;-82
2023/05/20 01:26:12;;;;;;;2.73;2.53;;;17.10;72.70;17.30;96437.00;;;;6126855;23;20171;-83
2023/05/20 01:28:42;;;;;;;2.80;2.60;;;17.10;72.80;17.30;96442.00;;;;6126309;23;20171;-83
2023/05/20 01:31:16;;;;;;;2.40;2.30;;;17.10;72.90;17.30;96440.00;;;;6125499;23;20707;-83
2023/05/20 01:33:45;;;;;;;3.07;2.77;;;17.10;73.00;17.30;96437.00;;;;6126457;23;20162;-83
2023/05/20 01:36:13;;;;;;;2.70;2.50;;;17.10;73.00;17.30;96442.00;;;;6125305;23;20254;-82
2023/05/20 01:38:42;;;;;;;3.07;2.87;;;17.10;73.00;17.30;96439.00;;;;6100091;23;20171;-83
2023/05/20 01:41:12;;;;;;;2.40;2.20;;;17.00;73.00;17.30;96436.00;;;;6126472;23;20579;-82
2023/05/20 01:43:40;;;;;;;2.70;2.50;;;17.00;73.00;17.20;96437.00;;;;6099872;23;20850;-82
2023/05/20 01:46:08;;;;;;;2.57;2.37;;;17.00;73.10;17.20;96444.00;;;;6100290;23;20182;-83
2023/05/20 01:48:35;;;;;;;2.70;2.50;;;17.00;73.20;17.20;96438.00;;;;6126450;23;20170;-82
2023/05/20 01:51:02;;;;;;;2.70;2.50;;;17.00;73.20;17.20;96431.00;;;;6125789;23;20687;-82
2023/05/20 01:53:29;;;;;;;2.80;2.60;;;17.00;73.30;17.20;96433.00;;;;6125563;23;20715;-83
2023/05/20 01:55:58;;;;;;;2.67;2.47;;;17.00;73.30;17.20;96437.00;;;;6125303;23;20596;-82
2023/05/20 01:58:26;;;;;;;3.30;3.00;;;16.90;73.40;17.20;96429.00;;;;6098600;23;20249;-83
2023/05/20 02:00:53;;;;;;;3.03;2.83;;;16.90;73.40;17.10;96433.00;;;;6123460;23;20218;-82
2023/05/20 02:03:20;;;;;;;3.27;3.07;;;16.90;73.50;17.10;96430.00;;;;6123601;23;20201;-83
2023/05/20 02:05:47;;;;;;;2.70;2.50;;;16.90;73.50;17.10;96419.00;;;;6123595;23;20258;-82
2023/05/20 02:08:14;;;;;;;2.60;2.40;;;16.90;73.60;17.10;96421.00;;;;6097371;23;20182;-82
2023/05/20 02:10:41;;;;;;;2.70;2.50;;;16.90;73.70;17.10;96408.00;;;;6123858;23;20684;-82
2023/05/20 02:13:10;;;;;;;3.03;2.83;;;16.80;73.70;17.10;96406.00;;;;6124146;23;20177;-82
2023/05/20 02:15:41;;;;;;;2.90;2.70;;;16.80;73.80;17.10;96406.00;;;;6126529;23;20640;-82
2023/05/20 02:18:11;;;;;;;2.83;2.63;;;16.80;73.80;17.00;96401.00;;;;6126403;23;20237;-82
2023/05/20 02:20:38;;;;;;;3.03;2.83;;;16.80;73.90;17.00;96405.00;;;;6125871;23;20202;-83
2023/05/20 02:23:05;;;;;;;3.00;2.80;;;16.80;74.00;17.00;96403.00;;;;6126886;23;20253;-83
2023/05/20 02:25:33;;;;;;;3.27;3.00;;;16.80;74.10;17.00;96405.00;;;;6100019;23;20175;-82
2023/05/20 02:28:00;;;;;;;3.23;2.93;;;16.80;74.10;17.00;96408.00;;;;6126358;23;20266;-83
2023/05/20 02:30:29;;;;;;;3.03;2.73;;;16.70;74.10;17.00;96396.00;;;;6126897;23;20237;-83
2023/05/20 02:32:56;;;;;;;2.90;2.70;;;16.70;74.20;17.00;96404.00;;;;6120858;23;20178;-82
2023/05/20 02:35:23;;;;;;;3.37;3.07;;;16.80;74.40;17.00;96397.00;;;;6137961;23;20589;-82
2023/05/20 02:37:50;;;;;;;4.33;2.97;;;16.80;74.40;17.00;96406.00;;;;6126593;23;20246;-82
2023/05/20 02:40:18;;;;;;;3.43;3.03;;;16.70;74.50;16.90;96409.00;;;;6126606;23;20195;-83
2023/05/20 02:42:46;;;;;;;3.03;2.83;;;16.70;74.40;16.90;96410.00;;;;6100815;23;20719;-82
2023/05/20 02:45:14;;;;;;;3.20;2.90;;;16.70;74.40;16.90;96412.00;;;;6101029;23;20543;-82
2023/05/20 02:47:43;;;;;;;2.90;2.60;;;16.70;74.50;16.90;96415.00;;;;6099861;23;20175;-82
2023/05/20 02:50:10;;;;;;;3.20;2.90;;;16.70;74.60;17.00;96410.00;;;;6124821;23;20194;-82
2023/05/20 02:52:38;;;;;;;3.37;3.17;;;16.70;74.70;17.00;96411.00;;;;6125237;23;20704;-83
2023/05/20 02:55:07;;;;;;;3.07;2.87;;;16.70;74.80;16.90;96403.00;;;;6123546;23;20225;-83
2023/05/20 02:57:37;;;;;;;3.00;2.67;;;16.70;74.90;17.00;96399.00;;;;6123824;23;20175;-83
2023/05/20 03:00:10;;;;;;;3.30;3.10;;;16.70;74.80;16.90;96403.00;;;;6098246;23;20199;-82
2023/05/20 03:02:37;;;;;;;2.67;2.57;;;16.70;74.70;16.90;96405.00;;;;6100212;23;20170;-82
2023/05/20 03:05:08;;;;;;;3.00;2.80;;;16.70;74.70;16.90;96402.00;;;;6125069;23;20289;-82
2023/05/20 03:07:37;;;;;;;3.30;3.03;;;16.70;74.70;16.90;96411.00;;;;6099052;23;20175;-82
2023/05/20 03:10:06;;;;;;;3.03;2.83;;;16.70;74.80;16.90;96410.00;;;;6126235;23;20190;-82
2023/05/20 03:12:34;;;;;;;3.33;3.03;;;16.70;74.80;16.90;96411.00;;;;6126500;23;20206;-83
2023/05/20 03:15:01;;;;;;;2.80;2.60;;;16.60;74.80;16.90;96419.00;;;;6100814;23;20174;-82
2023/05/20 03:17:30;;;;;;;3.10;2.90;;;16.60;74.80;16.80;96411.00;;;;6103713;23;20195;-82
2023/05/20 03:19:57;;;;;;;2.83;2.63;;;16.60;75.00;16.80;96408.00;;;;6129534;23;20257;-83
2023/05/20 03:22:26;;;;;;;3.07;2.87;;;16.60;75.00;16.80;96407.00;;;;6125918;23;20230;-82
2023/05/20 03:24:53;;;;;;;3.30;3.00;;;16.60;75.00;16.80;96408.00;;;;6099586;23;20539;-82
2023/05/20 03:27:21;;;;;;;3.47;3.27;;;16.60;75.20;16.80;96415.00;;;;6099378;23;20637;-82
2023/05/20 03:29:48;;;;;;;3.70;3.40;;;16.60;75.20;16.80;96409.00;;;;6123992;23;20191;-82
2023/05/20 03:32:15;;;;;;;3.33;3.13;;;16.60;75.20;16.80;96405.00;;;;6125282;23;20171;-83
2023/05/20 03:34:42;;;;;;;3.10;2.90;;;16.60;75.30;16.80;96412.00;;;;6125520;23;20262;-83
2023/05/20 03:37:10;;;;;;;3.13;2.93;;;16.60;75.30;16.80;96410.00;;;;6124966;23;20254;-83
2023/05/20 03:39:38;;;;;;;3.10;2.90;;;16.60;75.50;16.80;96410.00;;;;6125003;23;20193;-82
2023/05/20 03:42:06;;;;;;;3.63;3.37;;;16.60;75.50;16.80;96421.00;;;;6124360;23;20274;-83
2023/05/20 03:44:33;;;;;;;3.07;2.87;;;16.60;75.50;16.80;96418.00;;;;6098923;23;20589;-82
2023/05/20 03:47:00;;;;;;;3.30;3.10;;;16.60;75.60;16.80;96423.00;;;;6124509;23;20285;-83
2023/05/20 03:49:28;;;;;;;3.27;2.97;;;16.60;75.70;16.80;96422.00;;;;6124154;23;20517;-82
2023/05/20 03:51:55;;;;;;;3.20;3.00;;;16.60;75.70;16.80;96421.00;;;;6097393;23;20182;-82
2023/05/20 03:54:22;;;;;;;3.40;3.20;;;16.60;75.80;16.80;96423.00;;;;6123244;23;20257;-83
2023/05/20 03:56:51;;;;;;;3.23;2.97;;;16.60;75.80;16.90;96417.00;;;;6122434;23;20177;-83
2023/05/20 03:59:21;;;;;;;3.37;3.17;;;16.60;75.90;16.90;96419.00;;;;6097074;23;20261;-82
2023/05/20 04:01:49;;;;;;;2.97;2.77;;;16.60;75.90;16.90;96416.00;;;;6122909;23;20573;-82
2023/05/20 04:04:16;;;;;;;3.30;3.00;;;16.60;76.00;16.90;96419.00;;;;6097576;23;20278;-82
2023/05/20 04:06:43;;;;;;;3.63;3.30;;;16.60;76.10;17.00;96421.00;;;;6125253;23;20259;-83
2023/05/20 04:09:11;;;;;;;3.40;3.10;;;16.70;76.20;17.00;96419.00;;;;6099266;23;20544;-83
2023/05/20 04:11:38;;;;;;;3.60;3.30;;;16.70;76.20;17.00;96414.00;;;;6075464;23;20190;-83
2023/05/20 04:14:07;;;;;;;3.33;2.90;;;16.70;76.20;17.00;96416.00;;;;6127345;23;20177;-83
2023/05/20 04:16:36;;;;;;;3.20;3.00;;;16.70;76.10;17.00;96413.00;;;;6126296;23;20171;-83
2023/05/20 04:19:03;;;;;;;3.57;3.23;;;16.70;76.10;17.00;96414.00;;;;6078019;23;20711;-83
2023/05/20 04:21:31;;;;;;;2.93;2.73;;;16.70;76.10;17.00;96421.00;;;;6126885;23;20289;-82
2023/05/20 04:23:58;;;;;;;3.30;3.10;;;16.70;76.00;17.00;96421.00;;;;6126747;23;20202;-82
2023/05/20 04:26:26;;;;;;;3.60;3.30;;;16.70;76.10;17.00;96421.00;;;;6100239;23;20257;-82
2023/05/20 04:28:53;;;;;;;3.97;3.50;;;16.70;76.20;17.00;96413.00;;;;6100875;23;20201;-82
2023/05/20 04:31:25;;;;;;;4.17;3.87;;;16.70;76.20;17.00;96414.00;;;;6126743;23;20251;-82
2023/05/20 04:33:52;;;;;;;3.50;3.20;;;16.70;76.30;17.10;96418.00;;;;6127106;23;20246;-82
2023/05/20 04:36:21;;;;;;;3.57;3.23;;;16.70;76.30;17.10;96414.00;;;;6126688;23;20250;-82
2023/05/20 04:38:48;;;;;;;3.73;3.37;;;16.80;76.50;17.10;96419.00;;;;6126750;23;20171;-82
2023/05/20 04:41:16;;;;;;;3.93;3.40;;;16.80;76.50;17.20;96417.00;;;;6126301;23;20253;-82
2023/05/20 04:43:43;;;;;;;3.50;3.30;;;16.80;76.50;17.20;96420.00;;;;6124645;23;20174;-82
2023/05/20 04:46:10;;;;;;;3.90;3.47;;;16.80;76.60;17.20;96417.00;;;;6126167;23;20171;-82
2023/05/20 04:48:39;;;;;;;3.53;3.33;;;16.90;76.60;17.30;96421.00;;;;6099220;23;20737;-82
2023/05/20 04:51:09;;;;;;;3.90;3.60;;;16.90;76.60;17.30;96415.00;;;;6098604;23;20703;-82
2023/05/20 04:53:36;;;;;;;3.87;3.57;;;16.90;76.60;17.30;96414.00;;;;6124880;23;20175;-82
2023/05/20 04:56:04;;;;;;;3.90;3.60;;;17.00;76.60;17.30;96414.00;;;;6124968;23;20178;-81
2023/05/20 04:58:32;;;;;;;3.87;3.57;;;17.00;76.60;17.30;96417.00;;;;6128468;23;20257;-82
2023/05/20 05:01:00;;;;;;;3.43;3.13;;;17.00;76.60;17.40;96417.00;;;;6126163;23;20194;-82
2023/05/20 05:03:27;;;;;;;3.57;3.37;;;17.00;76.60;17.40;96425.00;;;;6101327;23;20206;-83
2023/05/20 05:05:58;;;;;;;3.83;3.53;;;17.10;76.70;17.40;96419.00;;;;6099971;23;20205;-82
2023/05/20 05:08:26;;;;;;;3.90;3.60;;;17.10;76.60;17.40;96415.00;;;;6100774;23;20237;-83
2023/05/20 05:10:53;;;;;;;4.77;3.83;;;17.10;76.70;17.40;96407.00;;;;6126218;23;20200;-83
2023/05/20 05:13:20;;;;;;;3.77;3.50;;;17.10;76.60;17.40;96404.00;;;;6100559;23;20174;-83
2023/05/20 05:15:48;;;;;;;3.47;3.27;;;17.10;76.60;17.40;96403.00;;;;6100535;23;20253;-82
2023/05/20 05:18:17;;;;;;;4.00;3.70;;;17.10;76.60;17.50;96402.00;;;;6125780;23;20173;-82
2023/05/20 05:20:44;;;;;;;4.07;3.77;;;17.20;76.60;17.50;96400.00;;;;6126194;23;20775;-82
2023/05/20 05:23:13;;;;;;;3.90;3.60;;;17.20;76.70;17.50;96397.00;;;;6125483;23;20174;-82
2023/05/20 05:25:40;;;;;;;4.57;3.73;;;17.20;76.70;17.50;96394.00;;;;6125735;23;20595;-82
2023/05/20 05:28:07;;;;;;;4.30;4.00;;;17.20;76.60;17.60;96391.00;;;;6126118;23;20177;-82
2023/05/20 05:30:36;;;;;;;3.77;3.57;;;17.20;76.60;17.60;96394.00;;;;6099953;23;20187;-82
2023/05/20 05:33:03;;;;;;;4.33;4.00;;;17.30;76.70;17.60;96390.00;;;;6126390;23;20571;-82
2023/05/20 05:35:30;;;;;;;4.27;3.70;;;17.30;76.70;17.60;96390.00;;;;6125943;23;20249;-82
2023/05/20 05:37:58;;;;;;;4.47;4.17;;;17.30;76.70;17.60;96392.00;;;;6125011;23;20206;-82
2023/05/20 05:40:27;;;;;;;4.17;3.87;;;17.30;76.60;17.60;96384.00;;;;6125795;23;20265;-82
2023/05/20 05:42:54;;;;;;;4.33;3.63;;;17.30;76.60;17.60;96389.00;;;;6145509;23;20186;-81
2023/05/20 05:45:21;;;;;;;3.67;3.47;;;17.30;76.70;17.60;96390.00;;;;6143759;23;20269;-82
2023/05/20 05:47:49;;;;;;;3.83;3.53;;;17.30;76.70;17.60;96391.00;;;;6123815;23;20258;-82
2023/05/20 05:50:16;;;;;;;3.73;3.43;;;17.40;77.50;17.70;96398.00;;;;6097565;23;20195;-82
2023/05/20 05:52:43;;;;;;;4.20;3.90;;;17.40;76.80;17.70;96400.00;;;;6122900;23;20576;-82
2023/05/20 05:55:12;;;;;;;4.00;3.70;;;17.40;76.70;17.70;96406.00;;;;6124724;23;20262;-82
2023/05/20 05:57:40;;;;;;;4.17;3.77;;;17.40;76.80;17.80;96410.00;;;;6125414;23;20250;-82
2023/05/20 06:00:10;;;;;;;4.07;3.77;;;17.40;76.80;17.80;96405.00;;;;6100731;23;20265;-82
2023/05/20 06:02:37;;;;;;;4.40;3.97;;;17.50;77.00;17.80;96410.00;;;;6125878;23;20178;-82
2023/05/20 06:05:05;;;;;;;4.57;4.27;;;17.50;76.90;17.80;96405.00;;;;6125021;23;20577;-82
2023/05/20 06:07:33;;;;;;;3.67;3.40;;;17.50;76.90;17.90;96405.00;;;;6125051;23;20174;-82
2023/05/20 06:10:00;;;;;;;4.00;3.70;;;17.50;76.80;17.90;96397.00;;;;6125407;23;20277;-82
2023/05/20 06:12:27;;;;;;;4.00;3.70;;;17.60;76.70;17.90;96396.00;;;;6102176;23;20545;-81
2023/05/20 06:14:56;;;;;;;4.30;4.00;;;17.60;76.50;18.00;96404.00;;;;6133379;23;20258;-83
2023/05/20 06:17:24;;;;;;;4.17;3.87;;;17.60;76.40;18.00;96406.00;;;;6130924;23;20245;-82
2023/05/20 06:19:51;;;;;;;4.83;3.97;;;17.60;76.50;18.00;96402.00;;;;6129068;23;20593;-82
2023/05/20 06:22:18;;;;;;;4.20;3.90;;;17.70;76.40;18.10;96402.00;;;;6073413;23;20182;-82
2023/05/20 06:24:45;;;;;;;3.77;3.43;;;17.70;76.40;18.10;96404.00;;;;6099983;23;20223;-81
2023/05/20 06:27:13;;;;;;;4.27;3.87;;;17.70;76.50;18.10;96395.00;;;;6099777;23;20227;-81
2023/05/20 06:29:40;;;;;;;3.93;3.63;;;17.80;76.50;18.20;96403.00;;;;6096320;23;20226;-83
2023/05/20 06:32:09;;;;;;;4.10;3.80;;;17.80;76.50;18.20;96397.00;;;;6093494;23;20179;-82
2023/05/20 06:34:38;;;;;;;4.37;4.03;;;17.90;76.70;18.30;96398.00;;;;6094434;23;20512;-82
2023/05/20 06:37:05;;;;;;;3.90;3.60;;;17.90;76.60;18.30;96397.00;;;;6095412;23;20195;-82
2023/05/20 06:39:32;;;;;;;3.90;3.60;;;18.00;76.70;18.40;96395.00;;;;6093966;23;20175;-82
2023/05/20 06:42:00;;;;;;;4.33;3.93;;;18.00;76.60;18.40;96389.00;;;;6094199;23;20179;-82
2023/05/20 06:44:27;;;;;;;3.93;3.63;;;18.10;76.70;18.50;96392.00;;;;6093598;23;20258;-84
2023/05/20 06:46:54;;;;;;;4.37;4.00;;;18.10;76.70;18.60;96395.00;;;;6094313;23;20523;-84
2023/05/20 06:49:23;;;;;;;4.10;3.80;;;18.10;76.60;18.60;96389.00;;;;6092004;23;20183;-84
2023/05/20 06:51:51;;;;;;;3.90;3.50;;;18.20;76.50;18.70;96399.00;;;;6092784;23;20175;-83
2023/05/20 06:54:18;;;;;;;4.60;3.53;;;18.20;76.50;18.80;96394.00;;;;6096353;23;20836;-84
2023/05/20 06:56:45;;;;;;;4.10;3.80;;;18.30;76.60;18.90;96388.00;;;;6093735;23;20187;-83
2023/05/20 06:59:12;;;;;;;4.40;4.00;;;18.40;76.60;18.90;96396.00;;;;6095459;23;20232;-84
2023/05/20 07:01:40;;;;;;;4.17;3.87;;;18.50;76.50;19.00;96387.00;;;;6093888;23;20191;-83
2023/05/20 07:04:07;;;;;;;3.60;3.40;;;18.50;76.30;19.10;96389.00;;;;6096103;23;20254;-83
2023/05/20 07:06:36;;;;;;;4.77;4.37;;;18.60;76.50;19.30;96384.00;;;;6095013;23;20277;-86
2023/05/20 07:09:04;;;;;;;4.47;4.10;;;18.70;77.20;19.40;96387.00;;;;6094909;23;20250;-84
2023/05/20 07:11:31;;;;;;;4.30;3.90;;;18.80;76.60;19.50;96395.00;;;;6096208;23;20198;-84
2023/05/20 07:13:58;;;;;;;3.67;3.47;;;18.90;76.70;19.70;96383.00;;;;6096564;23;20251;-84
2023/05/20 07:16:25;;;;;;;4.63;3.70;;;19.00;76.60;19.90;96381.00;;;;6094431;23;20741;-84
2023/05/20 07:18:53;;;;;;;3.93;3.63;;;19.20;76.70;20.00;96382.00;;;;6095665;23;20266;-85
2023/05/20 07:23:52;;;;;;;3.87;3.60;;;19.40;76.30;20.30;96380.00;;;;6127153;23;20175;-82
2023/05/20 07:26:19;;;;;;;4.13;3.70;;;19.50;76.10;20.40;96380.00;;;;6125494;23;20202;-82
2023/05/20 07:28:46;;;;;;;3.70;3.40;;;19.60;76.00;20.60;96378.00;;;;6099247;23;20193;-82
2023/05/20 07:31:14;;;;;;;3.30;3.10;;;19.70;75.70;20.70;96372.00;;;;6099769;23;20496;-83
2023/05/20 07:33:41;;;;;;;3.43;3.13;;;19.90;75.50;20.80;96366.00;;;;6123892;23;20564;-81
2023/05/20 07:36:08;;;;;;;3.80;3.40;;;20.00;75.20;20.90;96374.00;;;;6124245;23;20197;-81
2023/05/20 07:38:36;;;;;;;3.33;3.13;;;20.10;75.00;21.10;96366.00;;;;6098819;23;20651;-81
2023/05/20 07:41:06;;;;;;;3.17;2.97;;;20.20;75.00;21.20;96366.00;;;;6098713;23;20175;-83
2023/05/20 07:43:33;;;;;;;3.37;3.17;;;20.30;74.50;21.30;96369.00;;;;6124414;23;20211;-81
2023/05/20 07:46:01;;;;;;;3.27;3.07;;;20.50;74.40;21.50;96374.00;;;;6074978;23;20286;-81
2023/05/20 07:48:29;;;;;;;3.40;3.20;;;20.60;74.40;21.60;96372.00;;;;6126367;23;20210;-82
2023/05/20 07:50:58;;;;;;;3.47;3.17;;;20.70;74.30;21.80;96367.00;;;;6102423;23;20229;-83
2023/05/20 07:53:25;;;;;;;3.10;2.90;;;20.90;74.10;22.00;96368.00;;;;6127592;23;20274;-81
2023/05/20 07:55:53;;;;;;;3.70;3.23;;;21.00;73.30;22.20;96374.00;;;;6128197;23;20178;-82
2023/05/20 07:58:23;;;;;;;2.90;2.70;;;21.20;73.20;22.40;96368.00;;;;6127886;23;20171;-84
2023/05/20 08:00:51;;;;;;;3.20;2.90;;;21.30;72.80;22.50;96369.00;;;;6129689;23;20175;-80
2023/05/20 08:03:18;;;;;;;2.90;2.70;;;21.50;72.60;22.70;96376.00;;;;6108594;23;20198;-81
2023/05/20 08:05:46;;;;;;;3.37;3.07;;;21.60;71.70;22.80;96369.00;;;;6132610;23;20198;-82
2023/05/20 08:08:13;;;;;;;2.53;2.43;;;21.80;72.30;23.00;96362.00;;;;6084778;23;20189;-80
2023/05/20 08:10:40;;;;;;;2.93;2.73;;;21.90;71.20;23.20;96364.00;;;;6082804;23;20170;-81
2023/05/20 08:13:07;;;;;;;3.03;2.83;;;22.10;71.10;23.30;96368.00;;;;6137021;23;20195;-79
2023/05/20 08:15:36;;;;;;;2.97;2.77;;;22.20;70.60;23.50;96364.00;;;;6137304;23;20182;-81
2023/05/20 08:18:04;;;;;;;3.40;2.47;;;22.40;70.00;23.60;96368.00;;;;6114597;23;20204;-82
2023/05/20 08:20:31;;;;;;;2.90;2.70;;;22.50;69.60;23.80;96367.00;;;;6140151;23;20179;-81
2023/05/20 08:22:59;;;;;;;2.87;2.67;;;22.60;69.50;23.90;96373.00;;;;6110120;23;20260;-81
2023/05/20 08:25:27;;;;;;;3.03;2.83;;;22.80;69.30;24.00;96370.00;;;;6104807;23;20195;-81
2023/05/20 08:27:54;;;;;;;2.83;2.50;;;22.90;69.20;24.20;96366.00;;;;6101040;23;20188;-78
2023/05/20 08:30:22;;;;;;;4.67;2.60;;;23.00;68.90;24.30;96364.00;;;;6103331;23;20206;-80
2023/05/20 08:32:51;;;;;;;2.60;2.40;;;23.20;68.70;24.40;96361.00;;;;6101535;23;20215;-81
2023/05/20 08:35:21;;;;;;;4.00;3.00;;;23.30;68.10;24.50;96357.00;;;;6095584;23;20185;-81
2023/05/20 08:37:52;;;;;;;4.07;3.07;;;23.40;68.20;24.60;96361.00;;;;6098317;23;20203;-82
2023/05/20 08:40:21;;;;;;;2.93;2.40;;;23.50;68.00;24.70;96354.00;;;;6098471;23;20182;-81
2023/05/20 08:42:52;;;;;;;2.60;2.40;;;23.60;67.50;24.90;96362.00;;;;6102900;23;20695;-81
2023/05/20 08:45:26;;;;;;;2.73;2.53;;;23.70;67.00;25.10;96358.00;;;;6106222;23;20217;-81
2023/05/20 08:47:56;;;;;;;2.57;2.47;;;23.90;67.10;25.30;96357.00;;;;6106636;23;20254;-80
2023/05/20 08:50:23;;;;;;;2.60;2.40;;;24.00;67.30;25.50;96355.00;;;;6107024;23;20658;-80
2023/05/20 08:52:51;;;;;;;2.53;2.33;;;24.20;67.40;25.70;96362.00;;;;6104012;23;20205;-81
2023/05/20 08:55:25;;;;;;;2.80;2.50;;;24.40;67.00;25.90;96359.00;;;;6107057;23;20182;-82
2023/05/20 08:57:54;;;;;;;2.30;2.20;;;24.50;66.10;26.00;96362.00;;;;6108397;23;20167;-80
2023/05/20 09:00:26;;;;;;;3.10;2.47;;;24.70;65.30;26.10;96363.00;;;;6107697;23;20209;-81
2023/05/20 09:02:56;;;;;;;2.47;2.27;;;24.80;65.00;26.20;96366.00;;;;6107027;23;20195;-81
2023/05/20 09:05:23;;;;;;;2.70;2.50;;;24.90;64.40;26.30;96358.00;;;;6107776;23;20183;-79
2023/05/20 09:07:51;;;;;;;2.57;2.37;;;25.10;63.60;26.40;96346.00;;;;6104957;23;20183;-82
2023/05/20 09:10:20;;;;;;;2.17;2.07;;;25.20;63.50;26.60;96360.00;;;;6103127;23;20227;-82
2023/05/20 09:12:47;;;;;;;2.60;2.13;;;25.30;63.20;26.70;96355.00;;;;6100606;23;20191;-81
2023/05/20 09:15:14;;;;;;;3.13;2.47;;;25.40;62.30;26.80;96352.00;;;;6101783;23;20176;-82
2023/05/20 09:17:42;;;;;;;2.77;2.60;;;25.50;61.90;26.90;96354.00;;;;6100338;23;20178;-81
2023/05/20 09:20:13;;;;;;;2.40;2.20;;;25.60;62.20;26.90;96355.00;;;;6100182;23;20218;-82
2023/05/20 09:22:40;;;;;;;2.63;2.40;;;25.70;60.90;26.90;96355.00;;;;6116769;23;20202;-80
2023/05/20 09:25:11;;;;;;;2.97;2.23;;;25.80;60.70;26.90;96363.00;;;;6103199;23;20198;-80
2023/05/20 09:27:40;;;;;;;2.33;2.13;;;25.80;60.00;26.90;96354.00;;;;6128892;23;20171;-81
2023/05/20 09:30:11;;;;;;;2.17;2.07;;;25.90;60.50;27.00;96352.00;;;;6129519;23;20254;-82
2023/05/20 09:32:39;;;;;;;2.10;2.00;;;25.90;60.00;27.10;96357.00;;;;6083165;23;20226;-82
2023/05/20 09:35:08;;;;;;;2.30;2.20;;;26.00;60.50;27.20;96352.00;;;;6106632;23;20171;-80
2023/05/20 09:37:41;;;;;;;2.17;2.07;;;26.10;60.00;27.30;96359.00;;;;6080092;23;20181;-81
2023/05/20 09:40:15;;;;;;;4.37;2.27;;;26.20;59.70;27.40;96356.00;;;;6132540;23;20170;-82
2023/05/20 09:42:53;;;;;;;2.27;2.07;;;26.30;60.00;27.50;96358.00;;;;6106922;23;20194;-82
2023/05/20 09:45:22;;;;;;;2.47;2.10;;;26.40;59.90;27.70;96366.00;;;;6104913;23;20158;-82
2023/05/20 09:47:52;;;;;;;2.43;2.20;;;26.50;60.20;27.90;96352.00;;;;6108473;23;20178;-82
2023/05/20 09:50:22;;;;;;;2.60;2.40;;;26.60;59.80;28.10;96362.00;;;;6139387;23;20175;-78
2023/05/20 09:52:52;;;;;;;2.30;2.20;;;26.70;59.40;28.20;96369.00;;;;6123210;23;20226;-81
2023/05/20 09:55:23;;;;;;;2.13;2.03;;;26.90;58.90;28.40;96368.00;;;;6150696;23;20151;-80
2023/05/20 09:57:51;;;;;;;2.15;1.98;;;27.00;59.30;28.60;96368.00;;;;6122504;23;20173;-79
2023/05/20 10:00:18;;;;;;;2.30;2.20;;;27.20;59.40;28.70;96367.00;;;;6139516;23;20174;-81
2023/05/20 10:02:47;;;;;;;2.13;2.03;;;27.30;59.10;28.80;96358.00;;;;6136779;23;20207;-80
2023/05/20 10:05:21;;;;;;;2.72;2.05;;;27.40;59.10;28.90;96359.00;;;;6111807;23;20179;-80
2023/05/20 10:08:34;;;;;;;2.80;2.30;;;27.50;58.30;29.10;96356.00;;;;6111489;23;20221;-80
2023/05/20 10:11:16;;;;;;;2.20;2.10;;;27.70;56.90;29.10;96355.00;;;;6116838;23;20202;-79
2023/05/20 10:14:20;;;;;;;2.97;2.10;;;27.80;58.00;29.10;96349.00;;;;6131920;23;20219;-79
2023/05/20 10:17:00;;;;;;;1.98;1.88;;;27.80;56.90;29.10;96349.00;;;;6130145;23;20741;-78
2023/05/20 10:19:31;;;;;;;2.00;1.90;;;27.90;56.80;29.10;96340.00;;;;6106756;23;20616;-79
2023/05/20 10:22:01;;;;;;;1.90;1.80;;;27.90;56.40;29.00;96337.00;;;;6104795;23;20198;-78
2023/05/20 10:24:34;;;;;;;2.58;2.20;;;27.90;56.40;28.90;96344.00;;;;6132316;23;20240;-79
2023/05/20 10:27:07;;;;;;;2.40;2.20;;;27.90;56.00;28.80;96345.00;;;;6135549;23;20194;-79
2023/05/20 10:29:45;;;;;;;2.00;1.90;;;27.80;56.00;28.70;96336.00;;;;6136656;23;20217;-79
2023/05/20 10:32:24;;;;;;;2.15;2.00;;;27.80;55.70;28.70;96336.00;;;;6136271;23;20197;-80
2023/05/20 10:34:54;;;;;;;1.85;1.75;;;27.70;56.50;28.60;96330.00;;;;6118922;23;20181;-80
2023/05/20 10:37:26;;;;;;;2.30;2.10;;;27.70;56.50;28.50;96333.00;;;;6115193;23;20169;-81
2023/05/20 10:40:07;;;;;;;2.43;2.30;;;27.70;56.20;28.50;96330.00;;;;6119436;23;20166;-79
2023/05/20 10:42:34;;;;;;;2.17;2.00;;;27.60;55.70;28.40;96331.00;;;;6147466;23;20197;-81
2023/05/20 10:45:03;;;;;;;2.20;2.00;;;27.50;56.60;28.40;96326.00;;;;6120776;23;20174;-80
2023/05/20 10:47:31;;;;;;;1.90;1.80;;;27.50;56.60;28.30;96325.00;;;;6119166;23;20205;-80
2023/05/20 10:50:00;;;;;;;2.77;2.03;;;27.40;56.30;28.20;96316.00;;;;6144908;23;20178;-81
2023/05/20 10:52:32;;;;;;;2.27;2.10;;;27.40;55.70;28.10;96320.00;;;;6124448;23;20174;-79
2023/05/20 10:55:03;;;;;;;2.37;2.23;;;27.30;55.50;28.00;96315.00;;;;6142990;23;20155;-79
2023/05/20 10:57:32;;;;;;;1.83;1.73;;;27.30;55.40;28.00;96319.00;;;;6143173;23;20167;-80
2023/05/20 11:00:00;;;;;;;2.10;1.90;;;27.20;55.40;27.90;96323.00;;;;6139943;23;20245;-81
2023/05/20 11:02:28;;;;;;;2.00;1.90;;;27.20;55.00;27.80;96322.00;;;;6129342;23;20186;-80
2023/05/20 11:04:58;;;;;;;2.20;2.10;;;27.10;55.00;27.70;96320.00;;;;6103172;23;20199;-82